createdAt,value
2022-10-17T00:01:08.177Z,10.27
2022-10-17T00:03:37.112Z,10.19
2022-10-17T00:06:08.290Z,10.16
2022-10-17T00:08:36.317Z,10.21
2022-10-17T00:11:07.322Z,10.22
2022-10-17T00:13:35.439Z,10.24
2022-10-17T00:16:03.301Z,10.17
2022-10-17T00:18:32.507Z,10.19
2022-10-17T00:21:00.382Z,10.13
2022-10-17T00:23:30.238Z,10.15
2022-10-17T00:26:02.082Z,10.18
2022-10-17T00:28:29.993Z,10.10
2022-10-17T00:30:58.670Z,10.12
2022-10-17T00:33:26.761Z,10.20
2022-10-17T00:36:05.585Z,10.19
2022-10-17T00:38:33.534Z,10.22
2022-10-17T00:41:01.625Z,10.22
2022-10-17T00:43:29.723Z,10.25
2022-10-17T00:45:57.967Z,10.27
2022-10-17T00:48:27.092Z,10.31
2022-10-17T00:50:55.083Z,10.39
2022-10-17T00:53:24.639Z,10.45
2022-10-17T00:55:54.396Z,10.45
2022-10-17T00:58:22.619Z,10.51
2022-10-17T01:00:50.725Z,10.55
2022-10-17T01:03:18.827Z,10.61
2022-10-17T01:05:47.540Z,10.65
2022-10-17T01:08:15.488Z,10.65
2022-10-17T01:10:52.335Z,10.72
2022-10-17T01:13:25.248Z,10.78
2022-10-17T01:16:01.523Z,10.81
2022-10-17T01:18:38.062Z,10.84
2022-10-17T01:21:26.092Z,10.86
2022-10-17T01:24:32.496Z,10.86
2022-10-17T01:27:16.752Z,10.88
2022-10-17T01:30:01.430Z,10.96
2022-10-17T01:32:35.582Z,10.98
2022-10-17T01:35:06.733Z,11.00
2022-10-17T01:37:39.633Z,11.02
2022-10-17T01:40:11.586Z,11.09
2022-10-17T01:42:43.853Z,11.11
2022-10-17T01:45:15.499Z,11.13
2022-10-17T01:47:47.525Z,11.16
2022-10-17T01:50:18.397Z,11.23
2022-10-17T01:52:49.569Z,11.29
2022-10-17T01:55:20.962Z,11.21
2022-10-17T01:57:51.514Z,11.18
2022-10-17T02:00:21.747Z,11.19
2022-10-17T02:02:57.280Z,11.18
2022-10-17T02:05:28.056Z,11.20
2022-10-17T02:07:55.943Z,11.12
2022-10-17T02:10:32.088Z,11.15
2022-10-17T02:13:05.505Z,11.15
2022-10-17T02:15:59.859Z,11.13
2022-10-17T02:19:09.950Z,11.18
2022-10-17T02:21:43.383Z,11.17
2022-10-17T02:24:19.412Z,11.14
2022-10-17T02:26:51.709Z,11.13
2022-10-17T02:29:21.115Z,11.12
2022-10-17T02:31:52.715Z,11.17
2022-10-17T02:34:26.912Z,11.21
2022-10-17T02:36:57.455Z,11.30
2022-10-17T02:39:26.462Z,11.33
2022-10-17T02:41:55.518Z,11.33
2022-10-17T02:44:24.279Z,11.38
2022-10-17T02:46:56.640Z,11.40
2022-10-17T02:49:28.570Z,11.45
2022-10-17T02:52:02.438Z,11.46
2022-10-17T02:54:35.435Z,11.48
2022-10-17T02:57:08.719Z,11.58
2022-10-17T02:59:37.410Z,11.58
2022-10-17T03:02:06.023Z,11.68
2022-10-17T03:04:35.729Z,11.66
2022-10-17T03:07:12.734Z,11.58
2022-10-17T03:09:40.552Z,11.51
2022-10-17T03:12:08.448Z,11.53
2022-10-17T03:14:36.791Z,11.57
2022-10-17T03:17:05.154Z,11.57
2022-10-17T03:19:35.041Z,11.64
2022-10-17T03:22:03.098Z,11.54
2022-10-17T03:24:32.275Z,11.54
2022-10-17T03:27:00.152Z,11.59
2022-10-17T03:29:28.296Z,11.65
2022-10-17T03:31:56.987Z,11.57
2022-10-17T03:34:24.871Z,11.53
2022-10-17T03:36:54.355Z,11.51
2022-10-17T03:39:23.018Z,11.52
2022-10-17T03:41:50.835Z,11.56
2022-10-17T03:44:19.204Z,11.58
2022-10-17T03:46:47.102Z,11.55
2022-10-17T03:49:16.026Z,11.56
2022-10-17T03:51:43.939Z,11.59
2022-10-17T03:54:16.499Z,11.73
2022-10-17T03:56:44.623Z,11.87
2022-10-17T03:59:16.622Z,11.92
2022-10-17T04:01:51.525Z,12.03
2022-10-17T04:04:20.151Z,12.00
2022-10-17T04:06:47.953Z,12.05
2022-10-17T04:09:17.408Z,12.04
2022-10-17T04:11:59.871Z,11.97
2022-10-17T04:14:27.935Z,11.98
2022-10-17T04:16:55.863Z,12.05
2022-10-17T04:19:23.755Z,12.13
2022-10-17T04:21:51.696Z,12.28
2022-10-17T04:24:21.967Z,12.34
2022-10-17T04:26:59.112Z,12.27
2022-10-17T04:29:30.046Z,12.25
2022-10-17T04:32:06.518Z,12.28
2022-10-17T04:34:40.930Z,12.36
2022-10-17T04:37:08.855Z,12.51
2022-10-17T04:39:38.931Z,12.60
2022-10-17T04:42:07.015Z,12.59
2022-10-17T04:44:35.702Z,12.66
2022-10-17T04:47:03.756Z,12.66
2022-10-17T04:49:32.630Z,12.73
2022-10-17T04:52:08.856Z,12.86
2022-10-17T04:54:42.238Z,12.83
2022-10-17T04:57:12.316Z,12.78
2022-10-17T04:59:42.074Z,12.74
2022-10-17T05:02:19.722Z,12.71
2022-10-17T05:04:48.536Z,12.83
2022-10-17T05:07:17.330Z,12.75
2022-10-17T05:10:07.109Z,12.78
2022-10-17T05:12:35.020Z,12.79
2022-10-17T05:15:02.925Z,12.98
2022-10-17T05:17:31.650Z,12.89
2022-10-17T05:19:59.550Z,12.82
2022-10-17T05:22:27.534Z,12.87
2022-10-17T05:24:57.032Z,12.87
2022-10-17T05:27:26.277Z,12.99
2022-10-17T05:29:54.365Z,12.91
2022-10-17T05:32:28.421Z,12.93
2022-10-17T05:34:56.757Z,12.78
2022-10-17T05:37:26.323Z,12.88
2022-10-17T05:39:56.967Z,12.89
2022-10-17T05:42:27.619Z,12.90
2022-10-17T05:44:55.880Z,12.93
2022-10-17T05:47:23.933Z,12.95
2022-10-17T05:49:52.634Z,12.96
2022-10-17T05:52:27.228Z,12.87
2022-10-17T05:55:07.940Z,12.78
2022-10-17T05:57:37.217Z,12.94
2022-10-17T06:00:09.138Z,12.89
2022-10-17T06:02:43.151Z,12.88
2022-10-17T06:05:13.748Z,12.89
2022-10-17T06:07:42.144Z,12.96
2022-10-17T06:10:12.361Z,13.02
2022-10-17T06:12:41.983Z,13.06
2022-10-17T06:15:10.944Z,13.09
2022-10-17T06:17:40.432Z,13.12
2022-10-17T06:20:09.567Z,13.10
2022-10-17T06:22:37.410Z,13.09
2022-10-17T06:25:10.697Z,13.17
2022-10-17T06:27:38.580Z,13.20
2022-10-17T06:30:09.216Z,13.12
2022-10-17T06:32:37.116Z,13.17
2022-10-17T06:35:05.200Z,13.19
2022-10-17T06:37:36.536Z,13.25
2022-10-17T06:40:10.462Z,13.31
2022-10-17T06:42:39.329Z,13.35
2022-10-17T06:45:29.212Z,13.42
2022-10-17T06:48:16.747Z,13.48
2022-10-17T06:50:51.567Z,13.57
2022-10-17T06:53:25.116Z,13.57
2022-10-17T06:56:27.225Z,13.49
2022-10-17T06:59:22.793Z,13.66
2022-10-17T07:01:58.664Z,13.57
2022-10-17T07:04:27.296Z,13.65
2022-10-17T07:06:55.205Z,13.77
2022-10-17T07:09:27.720Z,13.73
2022-10-17T07:11:58.706Z,13.89
2022-10-17T07:14:31.836Z,13.95
2022-10-17T07:17:01.836Z,14.09
2022-10-17T07:19:32.404Z,14.18
2022-10-17T07:22:00.525Z,14.15
2022-10-17T07:24:29.084Z,14.26
2022-10-17T07:27:09.205Z,14.37
2022-10-17T07:29:37.055Z,14.59
2022-10-17T07:32:11.168Z,14.66
2022-10-17T07:34:39.052Z,14.71
2022-10-17T07:37:09.887Z,14.93
2022-10-17T07:39:40.033Z,15.01
2022-10-17T07:42:08.632Z,15.07
2022-10-17T07:44:36.651Z,15.13
2022-10-17T07:47:05.199Z,15.26
2022-10-17T07:49:34.408Z,15.36
2022-10-17T07:52:02.381Z,15.44
2022-10-17T07:54:30.223Z,15.57
2022-10-17T07:56:58.057Z,15.55
2022-10-17T07:59:25.884Z,15.61
2022-10-17T08:01:56.517Z,15.91
2022-10-17T08:04:24.930Z,15.98
2022-10-17T08:07:05.415Z,16.05
2022-10-17T08:09:39.821Z,15.96
2022-10-17T08:12:07.723Z,15.94
2022-10-17T08:14:35.692Z,16.03
2022-10-17T08:17:03.973Z,16.15
2022-10-17T08:19:31.926Z,16.24
2022-10-17T08:22:02.020Z,16.35
2022-10-17T08:24:29.852Z,16.24
2022-10-17T08:26:58.330Z,16.51
2022-10-17T08:29:26.208Z,16.42
2022-10-17T08:31:58.608Z,16.64
2022-10-17T08:34:29.412Z,16.44
2022-10-17T08:36:57.394Z,16.59
2022-10-17T08:39:26.572Z,16.67
2022-10-17T08:42:04.677Z,17.07
2022-10-17T08:44:43.344Z,17.20
2022-10-17T08:47:12.784Z,17.16
2022-10-17T08:49:46.935Z,17.30
2022-10-17T08:52:19.671Z,17.31
2022-10-17T08:54:49.406Z,17.25
2022-10-17T08:57:18.650Z,17.39
2022-10-17T08:59:51.988Z,17.63
2022-10-17T09:02:37.003Z,17.59
2022-10-17T09:05:34.379Z,17.96
2022-10-17T09:08:12.274Z,17.78
2022-10-17T09:10:51.837Z,17.87
2022-10-17T09:13:28.412Z,17.98
2022-10-17T09:16:04.710Z,18.12
2022-10-17T09:18:34.327Z,18.65
2022-10-17T09:21:05.449Z,18.60
2022-10-17T09:23:42.612Z,18.32
2022-10-17T09:26:12.565Z,18.41
2022-10-17T09:28:42.124Z,18.20
2022-10-17T09:31:15.281Z,18.38
2022-10-17T09:33:59.987Z,18.05
2022-10-17T09:36:30.911Z,18.07
2022-10-17T09:39:00.747Z,17.98
2022-10-17T09:41:50.499Z,18.09
2022-10-17T09:44:22.461Z,18.33
2022-10-17T09:47:04.207Z,18.32
2022-10-17T09:49:33.739Z,18.38
2022-10-17T09:52:02.293Z,18.52
2022-10-17T09:54:37.711Z,18.65
2022-10-17T09:57:09.707Z,18.97
2022-10-17T09:59:39.099Z,18.99
2022-10-17T10:02:16.415Z,19.16
2022-10-17T10:05:09.280Z,19.31
2022-10-17T10:07:39.138Z,19.62
2022-10-17T10:10:09.847Z,19.66
2022-10-17T10:12:40.131Z,19.87
2022-10-17T10:15:34.426Z,19.81
2022-10-17T10:18:02.487Z,19.80
2022-10-17T10:20:34.245Z,19.58
2022-10-17T10:23:13.280Z,20.16
2022-10-17T10:25:51.199Z,20.11
2022-10-17T10:28:20.603Z,20.16
2022-10-17T10:30:50.608Z,20.05
2022-10-17T10:33:20.607Z,20.20
2022-10-17T10:35:55.146Z,20.48
2022-10-17T10:38:23.081Z,20.66
2022-10-17T10:40:52.411Z,20.80
2022-10-17T10:43:28.457Z,21.25
2022-10-17T10:45:56.342Z,21.22
2022-10-17T10:48:25.425Z,20.91
2022-10-17T10:50:55.578Z,21.15
2022-10-17T10:53:35.375Z,21.09
2022-10-17T10:56:07.710Z,21.56
2022-10-17T10:58:43.036Z,21.73
2022-10-17T11:01:16.716Z,21.76
2022-10-17T11:03:55.722Z,21.52
2022-10-17T11:06:26.398Z,21.38
2022-10-17T11:09:10.911Z,21.30
2022-10-17T11:11:42.806Z,21.36
2022-10-17T11:14:16.191Z,21.46
2022-10-17T11:16:48.346Z,21.46
2022-10-17T11:19:21.398Z,21.54
2022-10-17T11:21:52.815Z,21.46
2022-10-17T11:24:25.622Z,21.44
2022-10-17T11:26:56.932Z,21.45
2022-10-17T11:29:29.978Z,21.76
2022-10-17T11:32:00.502Z,21.52
2022-10-17T11:34:30.976Z,21.67
2022-10-17T11:37:00.996Z,22.21
2022-10-17T11:39:32.674Z,22.26
2022-10-17T11:42:04.344Z,21.87
2022-10-17T11:44:36.580Z,22.11
2022-10-17T11:47:07.767Z,22.07
2022-10-17T11:49:39.939Z,21.91
2022-10-17T11:52:44.380Z,22.11
2022-10-17T11:55:18.367Z,22.79
2022-10-17T11:57:56.268Z,22.53
2022-10-17T12:00:34.123Z,22.86
2022-10-17T12:03:12.025Z,23.37
2022-10-17T12:05:44.451Z,23.43
2022-10-17T12:08:18.115Z,22.64
2022-10-17T12:10:49.961Z,22.20
2022-10-17T12:13:50.372Z,22.09
2022-10-17T12:16:45.217Z,21.96
2022-10-17T12:19:30.790Z,21.97
2022-10-17T12:22:00.519Z,21.89
2022-10-17T12:24:37.970Z,21.81
2022-10-17T12:27:46.033Z,21.76
2022-10-17T12:30:25.349Z,21.88
2022-10-17T12:33:06.769Z,21.76
2022-10-17T12:35:36.937Z,21.59
2022-10-17T12:38:29.206Z,21.71
2022-10-17T12:41:01.306Z,21.94
2022-10-17T12:43:56.293Z,22.21
2022-10-17T12:46:47.757Z,22.43
2022-10-17T12:49:48.264Z,22.86
2022-10-17T12:52:28.931Z,23.21
2022-10-17T12:55:14.369Z,23.20
2022-10-17T12:57:49.285Z,23.42
2022-10-17T13:00:22.238Z,23.19
2022-10-17T13:02:51.103Z,22.88
2022-10-17T13:05:25.106Z,22.65
2022-10-17T13:07:53.367Z,22.41
2022-10-17T13:10:22.908Z,22.18
2022-10-17T13:12:51.344Z,22.05
2022-10-17T13:15:20.704Z,21.85
2022-10-17T13:17:57.193Z,21.91
2022-10-17T13:20:31.269Z,21.88
2022-10-17T13:23:00.791Z,21.94
2022-10-17T13:25:29.023Z,21.92
2022-10-17T13:28:11.781Z,21.83
2022-10-17T13:30:39.669Z,21.77
2022-10-17T13:33:20.458Z,21.74
2022-10-17T13:36:05.686Z,21.74
2022-10-17T13:38:36.749Z,21.80
2022-10-17T13:41:34.120Z,21.72
2022-10-17T13:44:02.770Z,21.61
2022-10-17T13:46:38.265Z,21.61
2022-10-17T13:49:12.967Z,21.58
2022-10-17T13:51:45.374Z,21.50
2022-10-17T13:54:25.627Z,21.42
2022-10-17T13:56:57.088Z,21.38
2022-10-17T13:59:28.607Z,21.27
2022-10-17T14:01:57.002Z,21.17
2022-10-17T14:04:24.917Z,21.16
2022-10-17T14:06:54.202Z,21.12
2022-10-17T14:09:23.863Z,21.04
2022-10-17T14:12:00.377Z,21.09
2022-10-17T14:14:32.162Z,20.93
2022-10-17T14:17:14.357Z,20.76
2022-10-17T14:19:42.395Z,20.75
2022-10-17T14:22:19.803Z,20.78
2022-10-17T14:24:48.013Z,20.64
2022-10-17T14:27:28.535Z,20.61
2022-10-17T14:30:00.645Z,20.64
2022-10-17T14:32:29.652Z,20.67
2022-10-17T14:35:17.807Z,20.62
2022-10-17T14:37:49.803Z,20.63
2022-10-17T14:40:20.082Z,20.70
2022-10-17T14:42:48.445Z,20.61
2022-10-17T14:45:23.490Z,20.60
2022-10-17T14:47:52.234Z,20.54
2022-10-17T14:50:25.242Z,20.54
2022-10-17T14:53:06.334Z,20.54
2022-10-17T14:55:36.200Z,20.50
2022-10-17T14:58:17.203Z,20.53
2022-10-17T15:00:45.053Z,20.42
2022-10-17T15:03:13.674Z,20.49
2022-10-17T15:05:41.581Z,20.43
2022-10-17T15:08:14.094Z,20.45
2022-10-17T15:10:42.731Z,20.42
2022-10-17T15:13:28.884Z,20.46
2022-10-17T15:15:58.214Z,20.38
2022-10-17T15:18:26.129Z,20.39
2022-10-17T15:21:04.567Z,20.52
2022-10-17T15:23:35.990Z,20.38
2022-10-17T15:26:03.974Z,20.31
2022-10-17T15:28:31.930Z,20.33
2022-10-17T15:30:59.950Z,20.16
2022-10-17T15:33:27.867Z,20.26
2022-10-17T15:35:55.757Z,20.16
2022-10-17T15:38:23.624Z,20.09
2022-10-17T15:40:52.898Z,20.00
2022-10-17T15:43:20.691Z,19.93
2022-10-17T15:45:48.666Z,19.84
2022-10-17T15:48:20.241Z,19.85
2022-10-17T15:50:48.080Z,19.81
2022-10-17T15:53:16.279Z,19.70
2022-10-17T15:55:44.146Z,19.70
2022-10-17T15:58:16.536Z,19.72
2022-10-17T16:00:44.804Z,19.52
2022-10-17T16:03:12.790Z,19.35
2022-10-17T16:05:40.663Z,19.30
2022-10-17T16:08:08.583Z,19.26
2022-10-17T16:10:38.366Z,19.13
2022-10-17T16:13:06.251Z,19.10
2022-10-17T16:15:35.488Z,19.06
2022-10-17T16:18:06.634Z,18.95
2022-10-17T16:20:36.520Z,18.92
2022-10-17T16:23:05.287Z,18.92
2022-10-17T16:25:33.454Z,18.80
2022-10-17T16:28:01.779Z,18.79
2022-10-17T16:30:31.079Z,18.83
2022-10-17T16:33:00.635Z,18.71
2022-10-17T16:35:33.393Z,18.74
2022-10-17T16:38:04.778Z,18.71
2022-10-17T16:40:32.801Z,18.76
2022-10-17T16:43:00.767Z,18.77
2022-10-17T16:45:28.807Z,18.79
2022-10-17T16:47:56.823Z,18.78
2022-10-17T16:50:26.203Z,18.78
2022-10-17T16:52:54.248Z,18.81
2022-10-17T16:55:22.161Z,18.75
2022-10-17T16:57:50.043Z,18.70
2022-10-17T17:00:18.687Z,18.67
2022-10-17T17:02:48.365Z,18.62
2022-10-17T17:05:16.619Z,18.61
2022-10-17T17:07:47.698Z,18.57
2022-10-17T17:10:15.728Z,18.56
2022-10-17T17:12:43.710Z,18.50
2022-10-17T17:15:11.635Z,18.40
2022-10-17T17:17:55.725Z,18.32
2022-10-17T17:20:24.006Z,18.41
2022-10-17T17:22:53.248Z,18.27
2022-10-17T17:25:21.094Z,18.23
2022-10-17T17:27:49.016Z,18.13
2022-10-17T17:30:17.014Z,18.14
2022-10-17T17:32:44.905Z,18.01
2022-10-17T17:35:12.827Z,17.95
2022-10-17T17:37:40.767Z,17.98
2022-10-17T17:40:11.523Z,17.92
2022-10-17T17:42:39.447Z,17.87
2022-10-17T17:45:08.387Z,17.85
2022-10-17T17:47:36.345Z,17.75
2022-10-17T17:50:04.714Z,17.78
2022-10-17T17:52:32.931Z,17.74
2022-10-17T17:55:01.147Z,17.74
2022-10-17T17:57:31.620Z,17.74
2022-10-17T17:59:59.591Z,17.70
2022-10-17T18:02:27.683Z,17.69
2022-10-17T18:04:55.792Z,17.69
2022-10-17T18:07:23.797Z,17.65
2022-10-17T18:09:51.972Z,17.61
2022-10-17T18:12:19.950Z,17.61
2022-10-17T18:14:50.115Z,17.64
2022-10-17T18:17:18.042Z,17.68
2022-10-17T18:19:45.998Z,17.72
2022-10-17T18:22:13.965Z,17.69
2022-10-17T18:24:42.557Z,17.64
2022-10-17T18:27:12.655Z,17.58
2022-10-17T18:29:40.625Z,17.57
2022-10-17T18:32:10.126Z,17.58
2022-10-17T18:34:38.068Z,17.58
2022-10-17T18:37:06.054Z,17.54
2022-10-17T18:39:34.134Z,17.58
2022-10-17T18:42:02.331Z,17.59
2022-10-17T18:44:30.476Z,17.60
2022-10-17T18:47:02.937Z,17.58
2022-10-17T18:49:33.676Z,17.59
2022-10-17T18:52:01.558Z,17.56
2022-10-17T18:54:32.125Z,17.52
2022-10-17T18:57:00.141Z,17.50
2022-10-17T18:59:28.345Z,17.55
2022-10-17T19:01:56.380Z,17.59
2022-10-17T19:04:24.438Z,17.50
2022-10-17T19:06:53.762Z,17.56
2022-10-17T19:09:21.742Z,17.53
2022-10-17T19:11:49.694Z,17.47
2022-10-17T19:14:17.675Z,17.45
2022-10-17T19:16:47.359Z,17.55
2022-10-17T19:19:17.045Z,17.46
2022-10-17T19:21:45.231Z,17.46
2022-10-17T19:24:16.117Z,17.54
2022-10-17T19:26:45.058Z,17.55
2022-10-17T19:29:14.990Z,17.51
2022-10-17T19:31:43.323Z,17.57
2022-10-17T19:34:11.651Z,17.53
2022-10-17T19:36:40.129Z,17.52
2022-10-17T19:39:09.567Z,17.53
2022-10-17T19:41:41.185Z,17.56
2022-10-17T19:44:09.294Z,17.60
2022-10-17T19:46:37.300Z,17.48
2022-10-17T19:49:06.119Z,17.50
2022-10-17T19:51:34.482Z,17.47
2022-10-17T19:54:05.410Z,17.51
2022-10-17T19:56:37.616Z,17.49
2022-10-17T19:59:08.426Z,17.49
2022-10-17T20:01:38.816Z,17.46
2022-10-17T20:04:07.281Z,17.42
2022-10-17T20:06:35.949Z,17.44
2022-10-17T20:09:04.874Z,17.48
2022-10-17T20:11:32.750Z,17.46
2022-10-17T20:14:01.845Z,17.51
2022-10-17T20:16:33.187Z,17.49
2022-10-17T20:19:05.566Z,17.53
2022-10-17T20:21:35.115Z,17.50
2022-10-17T20:24:04.777Z,17.55
2022-10-17T20:26:38.042Z,17.50
2022-10-17T20:29:10.869Z,17.46
2022-10-17T20:31:55.388Z,17.51
2022-10-17T20:34:23.351Z,17.50
2022-10-17T20:36:52.019Z,17.55
2022-10-17T20:39:21.371Z,17.51
2022-10-17T20:41:49.342Z,17.45
2022-10-17T20:44:17.327Z,17.46
2022-10-17T20:47:00.608Z,17.47
2022-10-17T20:49:31.406Z,17.45
2022-10-17T20:51:59.558Z,17.59
2022-10-17T20:54:29.347Z,17.65
2022-10-17T20:56:59.866Z,17.58
2022-10-17T20:59:30.760Z,17.50
2022-10-17T21:01:58.828Z,17.59
2022-10-17T21:04:45.556Z,17.55
2022-10-17T21:07:16.055Z,17.58
2022-10-17T21:09:45.369Z,17.44
2022-10-17T21:12:18.193Z,17.49
2022-10-17T21:14:54.127Z,17.33
2022-10-17T21:17:22.131Z,17.47
2022-10-17T21:19:50.095Z,17.47
2022-10-17T21:22:19.463Z,17.37
2022-10-17T21:24:47.415Z,17.33
2022-10-17T21:27:17.343Z,17.41
2022-10-17T21:29:45.320Z,17.37
2022-10-17T21:32:25.193Z,17.31
2022-10-17T21:35:01.337Z,17.31
2022-10-17T21:37:30.687Z,17.31
2022-10-17T21:39:58.560Z,17.27
2022-10-17T21:42:26.799Z,17.25
2022-10-17T21:44:54.830Z,17.28
2022-10-17T21:47:25.553Z,17.24
2022-10-17T21:49:56.083Z,17.17
2022-10-17T21:52:23.994Z,17.17
2022-10-17T21:54:53.306Z,17.06
2022-10-17T21:57:21.239Z,17.03
2022-10-17T21:59:50.115Z,17.10
2022-10-17T22:02:18.109Z,17.16
2022-10-17T22:04:45.989Z,17.02
2022-10-17T22:07:15.154Z,16.92
2022-10-17T22:09:44.274Z,16.84
2022-10-17T22:12:13.586Z,16.83
2022-10-17T22:14:41.527Z,16.94
2022-10-17T22:17:09.428Z,16.82
2022-10-17T22:19:37.335Z,16.63
2022-10-17T22:22:05.233Z,16.64
2022-10-17T22:24:33.211Z,16.69
2022-10-17T22:27:01.247Z,16.66
2022-10-17T22:29:30.637Z,16.56
2022-10-17T22:31:58.567Z,16.48
2022-10-17T22:34:26.578Z,16.56
2022-10-17T22:36:54.755Z,16.49
2022-10-17T22:39:22.660Z,16.35
2022-10-17T22:41:50.558Z,16.45
2022-10-17T22:44:18.538Z,16.44
2022-10-17T22:46:47.768Z,16.37
2022-10-17T22:49:15.878Z,16.40
2022-10-17T22:51:43.798Z,16.33
2022-10-17T22:54:11.711Z,16.23
2022-10-17T22:56:39.694Z,16.17
2022-10-17T22:59:07.603Z,16.12
2022-10-17T23:01:35.589Z,16.18
2022-10-17T23:04:04.911Z,16.12
2022-10-17T23:06:32.901Z,16.26
2022-10-17T23:09:00.827Z,16.29
2022-10-17T23:11:28.722Z,16.23
2022-10-17T23:13:56.707Z,16.20
2022-10-17T23:16:24.665Z,16.31
2022-10-17T23:18:52.639Z,16.24
2022-10-17T23:21:22.146Z,16.31
2022-10-17T23:23:50.061Z,16.15
2022-10-17T23:26:18.046Z,16.13
2022-10-17T23:28:46.054Z,16.14
2022-10-17T23:31:15.884Z,16.14
2022-10-17T23:33:44.870Z,16.09
2022-10-17T23:36:13.776Z,15.99
2022-10-17T23:38:43.883Z,15.94
2022-10-17T23:41:13.373Z,15.92
2022-10-17T23:43:41.876Z,15.89
2022-10-17T23:46:10.315Z,15.96
2022-10-17T23:48:38.891Z,15.94
2022-10-17T23:51:07.247Z,15.89
2022-10-17T23:53:35.524Z,15.87
2022-10-17T23:56:05.516Z,15.81
2022-10-17T23:58:33.791Z,15.83
